createdAt,value
2016-09-08T00:00:51.925Z,19.19
2016-09-08T00:01:51.919Z,19.07
2016-09-08T00:02:51.915Z,18.94
2016-09-08T00:03:51.934Z,18.82
2016-09-08T00:04:51.866Z,18.69
2016-09-08T00:05:51.851Z,18.65
2016-09-08T00:06:51.766Z,18.65
2016-09-08T00:07:51.932Z,18.56
2016-09-08T00:08:51.914Z,18.74
2016-09-08T00:09:51.846Z,18.81
2016-09-08T00:10:51.856Z,18.94
2016-09-08T00:11:51.935Z,18.84
2016-09-08T00:12:51.870Z,18.91
2016-09-08T00:13:51.854Z,18.94
2016-09-08T00:14:51.865Z,18.99
2016-09-08T00:15:51.861Z,18.97
2016-09-08T00:16:51.820Z,19.12
2016-09-08T00:17:51.869Z,19.09
2016-09-08T00:18:51.862Z,19.1
2016-09-08T00:19:51.860Z,19.12
2016-09-08T00:20:51.914Z,19.07
2016-09-08T00:21:51.836Z,19.09
2016-09-08T00:22:51.869Z,18.99
2016-09-08T00:23:51.873Z,18.89
2016-09-08T00:24:51.829Z,18.87
2016-09-08T00:25:51.951Z,18.78
2016-09-08T00:26:51.868Z,18.69
2016-09-08T00:27:51.894Z,18.54
2016-09-08T00:28:51.788Z,18.56
2016-09-08T00:29:51.882Z,18.41
2016-09-08T00:30:51.958Z,18.29
2016-09-08T00:31:51.919Z,18.32
2016-09-08T00:32:51.895Z,18.23
2016-09-08T00:33:51.846Z,18.13
2016-09-08T00:34:51.842Z,17.99
2016-09-08T00:35:51.931Z,18.14
2016-09-08T00:36:51.901Z,18.11
2016-09-08T00:37:51.933Z,18.19
2016-09-08T00:38:51.956Z,18.11
2016-09-08T00:39:51.859Z,18.23
2016-09-08T00:40:51.929Z,18.23
2016-09-08T00:41:51.804Z,18.16
2016-09-08T00:42:51.930Z,18.21
2016-09-08T00:43:51.938Z,18.26
2016-09-08T00:44:51.820Z,18.26
2016-09-08T00:45:51.881Z,18.34
2016-09-08T00:46:51.891Z,18.23
2016-09-08T00:47:51.939Z,18.2
2016-09-08T00:48:51.819Z,18.24
2016-09-08T00:49:51.999Z,18.11
2016-09-08T00:50:51.926Z,18.1
2016-09-08T00:51:51.952Z,18.06
2016-09-08T00:52:51.875Z,17.96
2016-09-08T00:53:51.985Z,17.87
2016-09-08T00:54:51.983Z,17.83
2016-09-08T00:55:51.997Z,17.73
2016-09-08T00:56:51.951Z,17.71
2016-09-08T00:57:51.878Z,17.58
2016-09-08T00:58:51.887Z,17.46
2016-09-08T00:59:51.915Z,17.45
2016-09-08T01:00:51.907Z,17.36
2016-09-08T01:01:51.878Z,17.32
2016-09-08T01:02:51.990Z,17.18
2016-09-08T01:03:51.925Z,17.24
2016-09-08T01:04:51.894Z,17.12
2016-09-08T01:05:51.973Z,17.1
2016-09-08T01:06:51.993Z,17.02
2016-09-08T01:07:51.864Z,16.92
2016-09-08T01:08:52.004Z,16.9
2016-09-08T01:09:51.926Z,16.97
2016-09-08T01:10:52.008Z,16.91
2016-09-08T01:11:52.026Z,16.87
2016-09-08T01:12:51.979Z,16.76
2016-09-08T01:13:51.985Z,16.73
2016-09-08T01:14:51.938Z,16.69
2016-09-08T01:15:51.907Z,16.62
2016-09-08T01:16:51.910Z,16.66
2016-09-08T01:17:51.933Z,16.67
2016-09-08T01:18:51.906Z,16.55
2016-09-08T01:19:52.032Z,16.63
2016-09-08T01:20:51.955Z,16.57
2016-09-08T01:21:52.012Z,16.42
2016-09-08T01:22:52.007Z,16.48
2016-09-08T01:23:51.948Z,16.47
2016-09-08T01:24:51.979Z,16.42
2016-09-08T01:25:51.987Z,16.37
2016-09-08T01:26:51.996Z,16.49
2016-09-08T01:27:51.904Z,16.36
2016-09-08T01:28:51.878Z,16.36
2016-09-08T01:29:52.033Z,16.39
2016-09-08T01:30:51.993Z,16.27
2016-09-08T01:31:51.964Z,16.21
2016-09-08T01:32:52.024Z,16.13
2016-09-08T01:33:51.987Z,16.18
2016-09-08T01:34:52.060Z,16.11
2016-09-08T01:35:52.014Z,16.07
2016-09-08T01:36:51.939Z,16.02
2016-09-08T01:37:52.008Z,15.99
2016-09-08T01:38:51.966Z,16.07
2016-09-08T01:39:51.974Z,16.02
2016-09-08T01:40:52.062Z,15.99
2016-09-08T01:41:52.016Z,15.98
2016-09-08T01:42:51.980Z,16.02
2016-09-08T01:43:52.072Z,15.99
2016-09-08T01:44:52.026Z,15.98
2016-09-08T01:45:51.985Z,15.98
2016-09-08T01:46:52.004Z,15.93
2016-09-08T01:47:51.910Z,15.96
2016-09-08T01:48:52.055Z,15.89
2016-09-08T01:49:52.030Z,15.92
2016-09-08T01:50:51.970Z,15.91
2016-09-08T01:51:51.946Z,15.93
2016-09-08T01:52:52.074Z,15.95
2016-09-08T01:53:52.030Z,15.98
2016-09-08T01:54:51.958Z,16.02
2016-09-08T01:55:52.066Z,15.99
2016-09-08T01:56:52.068Z,15.93
2016-09-08T01:57:51.989Z,16
2016-09-08T01:58:51.949Z,16.06
2016-09-08T01:59:52.040Z,16.06
2016-09-08T02:00:52.041Z,16.02
2016-09-08T02:01:52.078Z,15.98
2016-09-08T02:02:52.016Z,15.95
2016-09-08T02:03:51.923Z,15.98
2016-09-08T02:04:52.047Z,15.96
2016-09-08T02:05:52.048Z,15.89
2016-09-08T02:06:52.045Z,15.83
2016-09-08T02:07:51.972Z,15.93
2016-09-08T02:08:52.019Z,15.84
2016-09-08T02:09:52.093Z,15.78
2016-09-08T02:10:52.009Z,15.71
2016-09-08T02:11:52.009Z,15.8
2016-09-08T02:12:52.050Z,15.68
2016-09-08T02:13:51.964Z,15.58
2016-09-08T02:14:52.007Z,15.62
2016-09-08T02:15:52.044Z,15.62
2016-09-08T02:16:52.093Z,15.58
2016-09-08T02:17:52.021Z,15.62
2016-09-08T02:18:51.957Z,15.53
2016-09-08T02:19:52.034Z,15.62
2016-09-08T02:20:52.027Z,15.58
2016-09-08T02:21:52.285Z,15.45
2016-09-08T02:22:52.110Z,15.49
2016-09-08T02:23:52.107Z,15.47
2016-09-08T02:24:52.111Z,15.55
2016-09-08T02:25:52.030Z,15.52
2016-09-08T02:26:52.109Z,15.55
2016-09-08T02:27:52.031Z,15.44
2016-09-08T02:28:52.036Z,15.47
2016-09-08T02:29:52.111Z,15.47
2016-09-08T02:30:52.122Z,15.51
2016-09-08T02:31:52.109Z,15.51
2016-09-08T02:32:52.112Z,15.52
2016-09-08T02:33:52.113Z,15.44
2016-09-08T02:34:52.037Z,15.51
2016-09-08T02:35:52.051Z,15.43
2016-09-08T02:36:52.050Z,15.47
2016-09-08T02:37:52.070Z,15.45
2016-09-08T02:38:52.014Z,15.41
2016-09-08T02:39:52.056Z,15.4
2016-09-08T02:40:52.003Z,15.31
2016-09-08T02:41:52.136Z,15.27
2016-09-08T02:42:52.012Z,15.31
2016-09-08T02:43:52.066Z,15.16
2016-09-08T02:44:51.979Z,15.22
2016-09-08T02:45:52.100Z,15.27
2016-09-08T02:46:52.136Z,15.26
2016-09-08T02:47:52.150Z,15.27
2016-09-08T02:48:52.066Z,15.13
2016-09-08T02:49:52.114Z,15.13
2016-09-08T02:50:52.056Z,15.15
2016-09-08T02:51:52.064Z,15.12
2016-09-08T02:52:52.120Z,15.08
2016-09-08T02:53:52.083Z,15.05
2016-09-08T02:54:52.086Z,15.1
2016-09-08T02:55:52.096Z,14.95
2016-09-08T02:56:52.080Z,15.04
2016-09-08T02:57:52.064Z,14.98
2016-09-08T02:58:52.086Z,14.93
2016-09-08T02:59:52.126Z,14.98
2016-09-08T03:00:52.115Z,14.87
2016-09-08T03:01:52.111Z,14.83
2016-09-08T03:02:52.107Z,14.85
2016-09-08T03:03:52.021Z,14.9
2016-09-08T03:04:52.163Z,14.89
2016-09-08T03:05:52.177Z,14.95
2016-09-08T03:06:52.022Z,14.9
2016-09-08T03:07:52.159Z,14.87
2016-09-08T03:08:52.084Z,14.93
2016-09-08T03:09:52.090Z,14.85
2016-09-08T03:10:52.125Z,14.83
2016-09-08T03:11:52.138Z,14.77
2016-09-08T03:12:52.088Z,14.87
2016-09-08T03:13:52.106Z,14.82
2016-09-08T03:14:52.166Z,14.71
2016-09-08T03:15:52.054Z,14.79
2016-09-08T03:16:52.145Z,14.77
2016-09-08T03:17:52.112Z,14.7
2016-09-08T03:18:52.133Z,14.79
2016-09-08T03:19:52.099Z,14.79
2016-09-08T03:20:52.203Z,14.71
2016-09-08T03:21:52.314Z,14.79
2016-09-08T03:22:52.086Z,14.7
2016-09-08T03:23:52.190Z,14.74
2016-09-08T03:24:52.116Z,14.75
2016-09-08T03:25:52.162Z,14.74
2016-09-08T03:26:52.147Z,14.66
2016-09-08T03:27:52.196Z,14.67
2016-09-08T03:28:52.115Z,14.67
2016-09-08T03:29:52.150Z,14.7
2016-09-08T03:30:52.074Z,14.63
2016-09-08T03:31:52.156Z,14.63
2016-09-08T03:32:52.113Z,14.7
2016-09-08T03:33:52.155Z,14.63
2016-09-08T03:34:52.134Z,14.59
2016-09-08T03:35:52.080Z,14.57
2016-09-08T03:36:52.211Z,14.52
2016-09-08T03:37:52.163Z,14.63
2016-09-08T03:38:52.200Z,14.6
2016-09-08T03:39:52.132Z,14.57
2016-09-08T03:40:52.129Z,14.6
2016-09-08T03:41:52.219Z,14.51
2016-09-08T03:42:52.165Z,14.52
2016-09-08T03:43:52.278Z,14.45
2016-09-08T03:44:52.224Z,14.45
2016-09-08T03:45:52.137Z,14.49
2016-09-08T03:46:52.237Z,14.45
2016-09-08T03:47:52.159Z,14.51
2016-09-08T03:48:52.129Z,14.46
2016-09-08T03:49:52.170Z,14.51
2016-09-08T03:50:52.177Z,14.53
2016-09-08T03:51:52.145Z,14.46
2016-09-08T03:52:52.248Z,14.44
2016-09-08T03:53:52.140Z,14.46
2016-09-08T03:54:52.194Z,14.39
2016-09-08T03:55:52.198Z,14.33
2016-09-08T03:56:52.201Z,14.34
2016-09-08T03:57:52.200Z,14.3
2016-09-08T03:58:52.201Z,14.39
2016-09-08T03:59:52.161Z,14.36
2016-09-08T04:00:52.077Z,14.31
2016-09-08T04:01:52.194Z,14.31
2016-09-08T04:02:52.281Z,14.33
2016-09-08T04:03:52.200Z,14.28
2016-09-08T04:04:52.121Z,14.34
2016-09-08T04:05:52.115Z,14.39
2016-09-08T04:06:52.166Z,14.26
2016-09-08T04:07:52.203Z,14.23
2016-09-08T04:08:52.219Z,14.28
2016-09-08T04:09:52.182Z,14.2
2016-09-08T04:10:52.249Z,14.13
2016-09-08T04:11:52.256Z,14.12
2016-09-08T04:12:52.218Z,14.19
2016-09-08T04:13:52.216Z,14.3
2016-09-08T04:14:52.250Z,14.36
2016-09-08T04:15:52.178Z,14.31
2016-09-08T04:16:52.255Z,14.33
2016-09-08T04:17:52.219Z,14.27
2016-09-08T04:18:52.183Z,14.28
2016-09-08T04:19:52.257Z,14.33
2016-09-08T04:20:52.222Z,14.28
2016-09-08T04:21:52.261Z,14.24
2016-09-08T04:22:52.222Z,14.42
2016-09-08T04:23:52.177Z,14.33
2016-09-08T04:24:52.108Z,14.27
2016-09-08T04:25:52.116Z,14.3
2016-09-08T04:26:52.215Z,14.2
2016-09-08T04:27:52.268Z,14.24
2016-09-08T04:28:52.196Z,14.26
2016-09-08T04:29:52.218Z,14.2
2016-09-08T04:30:52.283Z,14.16
2016-09-08T04:31:52.199Z,14.13
2016-09-08T04:32:52.237Z,14.16
2016-09-08T04:33:52.179Z,14.2
2016-09-08T04:34:52.153Z,14.19
2016-09-08T04:35:52.127Z,14.23
2016-09-08T04:36:52.238Z,14.16
2016-09-08T04:37:52.243Z,14.15
2016-09-08T04:38:52.227Z,14.11
2016-09-08T04:39:52.131Z,14.11
2016-09-08T04:40:52.253Z,14.02
2016-09-08T04:41:52.258Z,14.13
2016-09-08T04:42:52.223Z,14.13
2016-09-08T04:43:52.215Z,14.11
2016-09-08T04:44:52.248Z,14.12
2016-09-08T04:45:52.250Z,14.12
2016-09-08T04:46:52.288Z,14.15
2016-09-08T04:47:52.139Z,14.12
2016-09-08T04:48:52.200Z,14.2
2016-09-08T04:49:52.325Z,14.21
2016-09-08T04:50:52.178Z,14.23
2016-09-08T04:51:52.232Z,14.15
2016-09-08T04:52:52.190Z,14.16
2016-09-08T04:53:52.178Z,14.2
2016-09-08T04:54:52.311Z,14.27
2016-09-08T04:55:52.312Z,14.26
2016-09-08T04:56:52.238Z,14.23
2016-09-08T04:57:52.323Z,14.27
2016-09-08T04:58:52.267Z,14.27
2016-09-08T04:59:52.248Z,14.3
2016-09-08T05:00:52.320Z,14.27
2016-09-08T05:01:52.228Z,14.26
2016-09-08T05:02:52.244Z,14.16
2016-09-08T05:03:52.275Z,14.24
2016-09-08T05:04:52.241Z,14.13
2016-09-08T05:05:52.213Z,14.19
2016-09-08T05:06:52.325Z,14.16
2016-09-08T05:07:52.242Z,14.19
2016-09-08T05:08:52.300Z,14.3
2016-09-08T05:09:52.248Z,14.27
2016-09-08T05:10:52.340Z,14.3
2016-09-08T05:11:52.175Z,14.26
2016-09-08T05:12:52.340Z,14.39
2016-09-08T05:13:52.311Z,14.34
2016-09-08T05:14:52.333Z,14.3
2016-09-08T05:15:52.333Z,14.27
2016-09-08T05:16:52.290Z,14.36
2016-09-08T05:17:52.293Z,14.27
2016-09-08T05:18:52.259Z,14.26
2016-09-08T05:19:52.297Z,14.33
2016-09-08T05:20:52.355Z,14.3
2016-09-08T05:21:52.348Z,14.23
2016-09-08T05:22:52.429Z,14.26
2016-09-08T05:23:52.351Z,14.33
2016-09-08T05:24:52.275Z,14.44
2016-09-08T05:25:52.361Z,14.3
2016-09-08T05:26:52.220Z,14.27
2016-09-08T05:27:52.274Z,14.38
2016-09-08T05:28:52.273Z,14.41
2016-09-08T05:29:52.309Z,14.44
2016-09-08T05:30:52.316Z,14.42
2016-09-08T05:31:52.235Z,14.45
2016-09-08T05:32:52.354Z,14.45
2016-09-08T05:33:52.343Z,14.6
2016-09-08T05:34:52.361Z,14.6
2016-09-08T05:35:52.314Z,14.69
2016-09-08T05:36:52.286Z,14.7
2016-09-08T05:37:52.252Z,14.89
2016-09-08T05:38:52.259Z,15.05
2016-09-08T05:39:52.367Z,14.94
2016-09-08T05:40:52.241Z,15.01
2016-09-08T05:41:52.290Z,15.18
2016-09-08T05:42:52.354Z,15.15
2016-09-08T05:43:52.290Z,15.13
2016-09-08T05:44:52.288Z,15.12
2016-09-08T05:45:52.378Z,15.22
2016-09-08T05:46:52.364Z,15.25
2016-09-08T05:47:52.372Z,15.34
2016-09-08T05:48:52.259Z,15.49
2016-09-08T05:49:52.342Z,15.68
2016-09-08T05:50:52.290Z,16.04
2016-09-08T05:51:52.265Z,16.21
2016-09-08T05:52:52.273Z,16.4
2016-09-08T05:53:52.293Z,16.74
2016-09-08T05:54:52.222Z,16.87
2016-09-08T05:55:52.275Z,17.18
2016-09-08T05:56:52.299Z,17.31
2016-09-08T05:57:52.221Z,17.27
2016-09-08T05:58:52.439Z,17.38
2016-09-08T05:59:52.330Z,17.42
2016-09-08T06:00:52.273Z,17.4
2016-09-08T06:01:52.322Z,17.27
2016-09-08T06:02:52.234Z,17.25
2016-09-08T06:03:52.290Z,17.24
2016-09-08T06:04:52.318Z,17.3
2016-09-08T06:05:52.347Z,17.5
2016-09-08T06:06:52.396Z,17.87
2016-09-08T06:07:52.357Z,18.03
2016-09-08T06:08:52.240Z,18.19
2016-09-08T06:09:52.355Z,18.32
2016-09-08T06:10:52.319Z,18.32
2016-09-08T06:11:52.415Z,18.32
2016-09-08T06:12:52.326Z,18.11
2016-09-08T06:13:52.266Z,18.2
2016-09-08T06:14:52.324Z,18.32
2016-09-08T06:15:52.276Z,18.41
2016-09-08T06:16:52.427Z,18.47
2016-09-08T06:17:52.296Z,18.44
2016-09-08T06:18:52.385Z,18.57
2016-09-08T06:19:52.507Z,18.82
2016-09-08T06:20:52.490Z,18.86
2016-09-08T06:21:52.401Z,18.91
2016-09-08T06:22:52.487Z,18.9
2016-09-08T06:23:52.287Z,18.94
2016-09-08T06:24:52.428Z,18.93
2016-09-08T06:25:52.304Z,18.9
2016-09-08T06:26:52.418Z,18.93
2016-09-08T06:27:52.337Z,18.81
2016-09-08T06:28:52.329Z,18.99
2016-09-08T06:29:52.389Z,18.9
2016-09-08T06:30:52.309Z,19.02
2016-09-08T06:31:52.433Z,18.87
2016-09-08T06:32:52.362Z,18.94
2016-09-08T06:33:52.391Z,18.96
2016-09-08T06:34:52.425Z,18.93
2016-09-08T06:35:52.311Z,19.12
2016-09-08T06:36:52.284Z,19.07
2016-09-08T06:37:52.361Z,19.24
2016-09-08T06:38:52.360Z,19.35
2016-09-08T06:39:52.365Z,19.4
2016-09-08T06:40:52.544Z,19.55
2016-09-08T06:41:52.441Z,19.68
2016-09-08T06:42:52.431Z,19.8
2016-09-08T06:43:52.378Z,19.93
2016-09-08T06:44:52.408Z,19.98
2016-09-08T06:45:52.403Z,20.08
2016-09-08T06:46:52.327Z,20.34
2016-09-08T06:47:52.345Z,20.32
2016-09-08T06:48:52.450Z,20.23
2016-09-08T06:49:52.453Z,20.44
2016-09-08T06:50:52.341Z,20.4
2016-09-08T06:51:52.327Z,20.57
2016-09-08T06:52:52.404Z,20.68
2016-09-08T06:53:52.389Z,20.6
2016-09-08T06:54:52.392Z,20.93
2016-09-08T06:55:52.417Z,21.18
2016-09-08T06:56:52.397Z,21.16
2016-09-08T06:57:52.362Z,21.31
2016-09-08T06:58:52.488Z,20.81
2016-09-08T06:59:52.418Z,21.08
2016-09-08T07:00:52.519Z,21.22
2016-09-08T07:01:52.436Z,21.18
2016-09-08T07:02:52.460Z,21.13
2016-09-08T07:03:52.541Z,21.21
2016-09-08T07:04:52.334Z,21.3
2016-09-08T07:05:52.505Z,21.15
2016-09-08T07:06:52.514Z,21.43
2016-09-08T07:07:52.508Z,21.53
2016-09-08T07:08:52.540Z,21.27
2016-09-08T07:09:52.434Z,21.23
2016-09-08T07:10:52.462Z,21.16
2016-09-08T07:11:52.492Z,21.4
2016-09-08T07:12:52.423Z,21.59
2016-09-08T07:13:52.364Z,21.86
2016-09-08T07:14:52.526Z,21.83
2016-09-08T07:15:52.458Z,21.83
2016-09-08T07:16:52.444Z,21.71
2016-09-08T07:17:52.411Z,21.71
2016-09-08T07:18:52.437Z,21.8
2016-09-08T07:19:52.475Z,21.99
2016-09-08T07:20:52.490Z,21.9
2016-09-08T07:21:52.469Z,22.31
2016-09-08T07:22:52.452Z,22.27
2016-09-08T07:23:52.492Z,22.22
2016-09-08T07:24:52.456Z,21.83
2016-09-08T07:25:52.491Z,21.86
2016-09-08T07:26:52.508Z,21.71
2016-09-08T07:27:52.459Z,21.78
2016-09-08T07:28:52.470Z,21.99
2016-09-08T07:29:52.561Z,21.73
2016-09-08T07:30:52.489Z,21.73
2016-09-08T07:31:52.491Z,21.9
2016-09-08T07:32:52.484Z,21.97
2016-09-08T07:33:52.476Z,22.23
2016-09-08T07:34:52.563Z,22.34
2016-09-08T07:35:52.538Z,22.27
2016-09-08T07:36:52.574Z,22.45
2016-09-08T07:37:52.551Z,22.49
2016-09-08T07:38:52.561Z,22.61
2016-09-08T07:39:52.486Z,22.73
2016-09-08T07:40:52.430Z,22.7
2016-09-08T07:41:52.550Z,22.84
2016-09-08T07:42:54.146Z,22.84
2016-09-08T07:43:52.606Z,22.96
2016-09-08T07:44:52.442Z,22.86
2016-09-08T07:45:52.578Z,22.84
2016-09-08T07:46:52.486Z,23.15
2016-09-08T07:47:52.514Z,23.14
2016-09-08T07:48:52.454Z,23.06
2016-09-08T07:49:53.312Z,23.03
2016-09-08T07:50:52.547Z,23.09
2016-09-08T07:51:52.485Z,23.15
2016-09-08T07:52:52.611Z,23.53
2016-09-08T07:53:52.477Z,23.4
2016-09-08T07:54:53.958Z,23.29
2016-09-08T07:55:52.707Z,23.12
2016-09-08T07:56:52.578Z,23.21
2016-09-08T07:57:52.470Z,23.09
2016-09-08T07:58:52.681Z,23.15
2016-09-08T07:59:52.615Z,23.34
2016-09-08T08:00:52.616Z,23.5
2016-09-08T08:01:53.174Z,23.45
2016-09-08T08:02:52.431Z,23.57
2016-09-08T08:03:52.525Z,23.67
2016-09-08T08:04:52.520Z,23.63
2016-09-08T08:05:53.258Z,23.78
2016-09-08T08:06:52.761Z,24.04
2016-09-08T08:07:52.905Z,24.36
2016-09-08T08:08:52.751Z,24.97
2016-09-08T08:09:52.759Z,24.52
2016-09-08T08:10:52.586Z,24.61
2016-09-08T08:11:52.512Z,25.09
2016-09-08T08:12:52.641Z,24.93
2016-09-08T08:14:37.326Z,24.58
2016-09-08T08:14:54.542Z,24.63
2016-09-08T08:15:52.746Z,24.46
2016-09-08T08:16:52.546Z,24.33
2016-09-08T08:17:52.568Z,24.37
2016-09-08T08:18:52.669Z,24.21
2016-09-08T08:19:52.538Z,24.09
2016-09-08T08:20:52.570Z,24.3
2016-09-08T08:21:52.546Z,24.34
2016-09-08T08:23:03.583Z,24.54
2016-09-08T08:23:53.864Z,24.36
2016-09-08T08:24:52.564Z,24.32
2016-09-08T08:25:52.706Z,24.34
2016-09-08T08:26:52.694Z,24.3
2016-09-08T08:27:52.615Z,24.32
2016-09-08T08:28:52.575Z,24.64
2016-09-08T08:29:52.525Z,24.67
2016-09-08T08:30:52.573Z,25.04
2016-09-08T08:31:52.612Z,24.89
2016-09-08T08:32:52.653Z,25.15
2016-09-08T08:33:52.582Z,25.39
2016-09-08T08:34:52.740Z,25.67
2016-09-08T08:35:52.555Z,26.22
2016-09-08T08:36:52.626Z,26.24
2016-09-08T08:37:52.667Z,26.23
2016-09-08T08:38:52.669Z,26.54
2016-09-08T08:39:52.972Z,26.67
2016-09-08T08:40:52.642Z,26.47
2016-09-08T08:41:52.690Z,26.19
2016-09-08T08:42:52.626Z,26.11
2016-09-08T08:43:52.535Z,25.99
2016-09-08T08:44:52.586Z,26.3
2016-09-08T08:45:52.701Z,26.49
2016-09-08T08:46:52.665Z,26.11
2016-09-08T08:47:52.669Z,26.04
2016-09-08T08:48:52.728Z,26.38
2016-09-08T08:49:52.701Z,26.38
2016-09-08T08:50:52.690Z,26.19
2016-09-08T08:51:52.717Z,26.63
2016-09-08T08:52:52.842Z,26.45
2016-09-08T08:54:37.627Z,25.94
2016-09-08T08:54:54.523Z,25.86
2016-09-08T08:55:53.064Z,25.59
2016-09-08T08:56:53.216Z,25.57
2016-09-08T08:58:00.270Z,25.62
2016-09-08T08:59:18.074Z,25.41
2016-09-08T08:59:52.618Z,25.63
2016-09-08T09:00:52.629Z,26.68
2016-09-08T09:01:52.724Z,27.45
2016-09-08T09:03:03.760Z,27.68
2016-09-08T09:03:52.938Z,27.46
2016-09-08T09:04:52.690Z,27.19
2016-09-08T09:05:52.741Z,26.67
2016-09-08T09:06:53.317Z,26.38
2016-09-08T09:07:52.728Z,26.39
2016-09-08T09:08:52.721Z,26.81
2016-09-08T09:09:52.739Z,26.97
2016-09-08T09:10:52.696Z,26.76
2016-09-08T09:11:52.821Z,26.06
2016-09-08T09:12:52.622Z,26.06
2016-09-08T09:13:52.566Z,26.03
2016-09-08T09:14:52.613Z,26.03
2016-09-08T09:15:52.717Z,26.34
2016-09-08T09:16:52.649Z,26.35
2016-09-08T09:17:52.614Z,26.5
2016-09-08T09:18:52.628Z,26.63
2016-09-08T09:19:52.587Z,26.76
2016-09-08T09:20:52.762Z,26.34
2016-09-08T09:21:52.593Z,26.31
2016-09-08T09:22:52.671Z,26.38
2016-09-08T09:23:52.891Z,26.45
2016-09-08T09:24:52.714Z,26.56
2016-09-08T09:25:52.713Z,26.31
2016-09-08T09:26:52.706Z,26.16
2016-09-08T09:27:53.295Z,26.23
2016-09-08T09:28:52.734Z,26.27
2016-09-08T09:29:52.681Z,26.12
2016-09-08T09:30:52.637Z,26.42
2016-09-08T09:31:52.682Z,26.67
2016-09-08T09:32:52.672Z,26.6
2016-09-08T09:33:52.647Z,26.23
2016-09-08T09:34:52.744Z,26.42
2016-09-08T09:35:52.636Z,26.64
2016-09-08T09:36:52.706Z,27.19
2016-09-08T09:37:52.634Z,26.99
2016-09-08T09:38:52.711Z,26.71
2016-09-08T09:39:52.671Z,26.39
2016-09-08T09:40:52.699Z,26.6
2016-09-08T09:41:53.124Z,26.87
2016-09-08T09:42:52.689Z,26.81
2016-09-08T09:43:52.685Z,26.63
2016-09-08T09:44:52.623Z,26.52
2016-09-08T09:45:52.934Z,26.57
2016-09-08T09:46:52.565Z,26.49
2016-09-08T09:47:52.589Z,26.74
2016-09-08T09:48:53.392Z,27.42
2016-09-08T09:49:52.638Z,27.81
2016-09-08T09:50:52.741Z,27.46
2016-09-08T09:51:52.673Z,27.46
2016-09-08T09:52:52.738Z,27.55
2016-09-08T09:53:52.744Z,27.98
2016-09-08T09:54:52.708Z,28.08
2016-09-08T09:55:52.690Z,28.12
2016-09-08T09:56:53.445Z,27.79
2016-09-08T09:57:52.739Z,27.64
2016-09-08T09:58:52.798Z,27.53
2016-09-08T09:59:53.238Z,27.8
2016-09-08T10:00:54.147Z,27.86
2016-09-08T10:01:53.597Z,27.52
2016-09-08T10:02:55.351Z,27.83
2016-09-08T10:03:53.670Z,27.81
2016-09-08T10:04:53.061Z,27.49
2016-09-08T10:05:52.621Z,27.75
2016-09-08T10:06:52.782Z,27.68
2016-09-08T10:07:52.646Z,27.43
2016-09-08T10:08:52.700Z,27.46
2016-09-08T10:09:52.801Z,27.38
2016-09-08T10:10:52.737Z,27.93
2016-09-08T10:11:52.667Z,28.39
2016-09-08T10:12:52.920Z,28.7
2016-09-08T10:13:52.675Z,28.97
2016-09-08T10:14:52.745Z,29.02
2016-09-08T10:15:52.715Z,28.57
2016-09-08T10:16:52.632Z,28.31
2016-09-08T10:17:52.718Z,28.46
2016-09-08T10:18:52.719Z,28.92
2016-09-08T10:19:52.679Z,28.76
2016-09-08T10:20:52.740Z,28.64
2016-09-08T10:21:52.784Z,29.02
2016-09-08T10:22:52.734Z,28.08
2016-09-08T10:23:53.003Z,28.05
2016-09-08T10:24:52.800Z,28.02
2016-09-08T10:25:52.755Z,28.11
2016-09-08T10:26:52.705Z,28.2
2016-09-08T10:27:52.876Z,28.14
2016-09-08T10:28:52.798Z,28.78
2016-09-08T10:29:52.791Z,29.58
2016-09-08T10:30:52.772Z,29.89
2016-09-08T10:31:53.261Z,30.67
2016-09-08T10:32:53.308Z,31.36
2016-09-08T10:33:53.699Z,30.18
2016-09-08T10:34:52.904Z,29.43
2016-09-08T10:35:52.717Z,28.88
2016-09-08T10:36:52.792Z,28.53
2016-09-08T10:37:52.792Z,28.61
2016-09-08T10:38:52.866Z,28.43
2016-09-08T10:39:52.962Z,28.76
2016-09-08T10:40:52.890Z,28.18
2016-09-08T10:41:53.582Z,28.38
2016-09-08T10:42:52.860Z,29.18
2016-09-08T10:43:52.653Z,29.7
2016-09-08T10:44:54.523Z,29.92
2016-09-08T10:45:55.956Z,29.67
2016-09-08T10:46:56.015Z,29.02
2016-09-08T10:47:54.766Z,28.78
2016-09-08T10:48:54.521Z,28.48
2016-09-08T10:49:52.829Z,28.63
2016-09-08T10:50:55.163Z,28.8
2016-09-08T10:51:54.867Z,29.06
2016-09-08T10:52:54.356Z,29.63
2016-09-08T10:53:53.347Z,29.7
2016-09-08T10:54:52.753Z,29.6
2016-09-08T10:55:52.713Z,29.55
2016-09-08T10:56:52.752Z,28.8
2016-09-08T10:57:52.739Z,28.75
2016-09-08T10:58:52.927Z,29.17
2016-09-08T10:59:52.942Z,29.51
2016-09-08T11:00:53.556Z,29.47
2016-09-08T11:01:52.775Z,29.02
2016-09-08T11:02:52.813Z,29.35
2016-09-08T11:03:52.891Z,29.06
2016-09-08T11:04:52.810Z,29.42
2016-09-08T11:05:52.879Z,29.4
2016-09-08T11:06:52.781Z,28.86
2016-09-08T11:07:54.637Z,29.23
2016-09-08T11:08:52.890Z,29.58
2016-09-08T11:09:52.848Z,30.26
2016-09-08T11:10:54.770Z,30.51
2016-09-08T11:11:54.418Z,30.49
2016-09-08T11:12:52.948Z,30.24
2016-09-08T11:13:52.833Z,29.89
2016-09-08T11:14:52.930Z,29.72
2016-09-08T11:15:52.883Z,29.65
2016-09-08T11:16:52.837Z,30.02
2016-09-08T11:17:52.753Z,29.54
2016-09-08T11:18:52.830Z,29.52
2016-09-08T11:19:52.810Z,29.3
2016-09-08T11:20:52.948Z,29.01
2016-09-08T11:21:52.917Z,29.32
2016-09-08T11:22:52.976Z,29.48
2016-09-08T11:23:53.134Z,29.23
2016-09-08T11:24:52.814Z,29.43
2016-09-08T11:25:52.795Z,29.5
2016-09-08T11:26:52.794Z,30.1
2016-09-08T11:27:52.909Z,29.81
2016-09-08T11:28:52.777Z,29.48
2016-09-08T11:29:52.915Z,29.5
2016-09-08T11:30:52.850Z,29.58
2016-09-08T11:31:52.817Z,29.72
2016-09-08T11:32:52.816Z,29.52
2016-09-08T11:33:52.893Z,30.14
2016-09-08T11:34:52.946Z,30.52
2016-09-08T11:35:52.865Z,30.28
2016-09-08T11:36:52.784Z,30.13
2016-09-08T11:37:52.845Z,30
2016-09-08T11:38:53.029Z,29.63
2016-09-08T11:39:52.868Z,29.92
2016-09-08T11:40:52.865Z,29.92
2016-09-08T11:41:52.850Z,29.98
2016-09-08T11:42:53.027Z,29.77
2016-09-08T11:43:52.829Z,29.58
2016-09-08T11:44:52.931Z,29.05
2016-09-08T11:45:52.907Z,28.92
2016-09-08T11:46:52.849Z,29.35
2016-09-08T11:47:52.866Z,29.42
2016-09-08T11:48:53.049Z,29.45
2016-09-08T11:49:52.912Z,29.43
2016-09-08T11:50:52.933Z,30.13
2016-09-08T11:51:52.889Z,30.16
2016-09-08T11:52:52.881Z,30.57
2016-09-08T11:53:52.934Z,30.47
2016-09-08T11:54:52.802Z,30.64
2016-09-08T11:55:52.873Z,30.49
2016-09-08T11:56:52.773Z,29.48
2016-09-08T11:57:52.842Z,29.51
2016-09-08T11:58:52.933Z,29.89
2016-09-08T11:59:52.860Z,30.25
2016-09-08T12:00:52.775Z,31
2016-09-08T12:01:52.934Z,30.81
2016-09-08T12:02:52.965Z,30.96
2016-09-08T12:03:52.866Z,30.56
2016-09-08T12:04:52.871Z,30.39
2016-09-08T12:05:52.829Z,30.07
2016-09-08T12:06:52.834Z,29.75
2016-09-08T12:07:52.948Z,29.79
2016-09-08T12:08:52.834Z,29.75
2016-09-08T12:09:52.956Z,29.5
2016-09-08T12:10:52.916Z,29.18
2016-09-08T12:11:52.865Z,29.14
2016-09-08T12:12:52.991Z,29.61
2016-09-08T12:13:52.982Z,29.84
2016-09-08T12:14:53.586Z,30.1
2016-09-08T12:15:54.431Z,29.87
2016-09-08T12:16:54.370Z,29.58
2016-09-08T12:17:54.377Z,29.28
2016-09-08T12:18:54.427Z,30.02
2016-09-08T12:19:54.758Z,29.97
2016-09-08T12:20:54.175Z,30.47
2016-09-08T12:21:52.998Z,30.47
2016-09-08T12:22:53.432Z,29.98
2016-09-08T12:23:52.880Z,30.11
2016-09-08T12:24:53.137Z,30.19
2016-09-08T12:25:52.922Z,30.06
2016-09-08T12:26:53.309Z,30.04
2016-09-08T12:27:52.953Z,29.61
2016-09-08T12:28:52.865Z,29.38
2016-09-08T12:29:52.971Z,29.48
2016-09-08T12:30:53.557Z,29.65
2016-09-08T12:31:56.116Z,29.97
2016-09-08T12:32:52.977Z,29.72
2016-09-08T12:33:54.042Z,29.6
2016-09-08T12:34:53.629Z,29.66
2016-09-08T12:35:53.378Z,29.84
2016-09-08T12:36:53.261Z,29.66
2016-09-08T12:37:53.042Z,29.85
2016-09-08T12:38:52.950Z,30.52
2016-09-08T12:39:53.654Z,30.57
2016-09-08T12:40:52.996Z,30.56
2016-09-08T12:41:53.298Z,31.13
2016-09-08T12:42:53.741Z,31.1
2016-09-08T12:43:52.900Z,30.73
2016-09-08T12:44:52.950Z,30.09
2016-09-08T12:45:52.970Z,29.73
2016-09-08T12:46:52.948Z,30.06
2016-09-08T12:47:54.155Z,30.02
2016-09-08T12:48:53.014Z,30.07
2016-09-08T12:49:53.104Z,29.73
2016-09-08T12:50:53.875Z,30.11
2016-09-08T12:51:53.007Z,30.51
2016-09-08T12:52:53.056Z,29.57
2016-09-08T12:53:53.355Z,29.4
2016-09-08T12:54:53.036Z,29.29
2016-09-08T12:55:52.977Z,29.11